createdAt,value
2023-05-03T00:00:08.426Z,74.11
2023-05-03T00:02:57.558Z,74.26
2023-05-03T00:05:26.428Z,73.86
2023-05-03T00:07:53.492Z,72.11
2023-05-03T00:10:21.621Z,71.92
2023-05-03T00:12:48.836Z,71.46
2023-05-03T00:15:16.083Z,71.47
2023-05-03T00:17:43.536Z,71.42
2023-05-03T00:20:12.237Z,71.41
2023-05-03T00:22:39.335Z,71.91
2023-05-03T00:25:09.043Z,71.79
2023-05-03T00:27:36.592Z,72.87
2023-05-03T00:30:04.717Z,73.44
2023-05-03T00:32:31.970Z,74.20
2023-05-03T00:34:59.447Z,73.06
2023-05-03T00:37:27.073Z,72.92
2023-05-03T00:39:54.205Z,72.89
2023-05-03T00:42:21.623Z,72.55
2023-05-03T00:44:48.867Z,72.85
2023-05-03T00:47:16.849Z,73.48
2023-05-03T00:49:44.807Z,73.84
2023-05-03T00:52:11.965Z,73.86
2023-05-03T00:54:39.909Z,73.78
2023-05-03T00:57:07.585Z,74.21
2023-05-03T00:59:35.210Z,73.94
2023-05-03T01:02:03.875Z,74.58
2023-05-03T01:04:32.809Z,74.83
2023-05-03T01:07:13.539Z,75.00
2023-05-03T01:10:00.001Z,75.48
2023-05-03T01:12:35.869Z,75.67
2023-05-03T01:15:12.234Z,76.37
2023-05-03T01:17:42.318Z,75.85
2023-05-03T01:20:14.345Z,76.62
2023-05-03T01:22:41.799Z,77.04
2023-05-03T01:25:10.679Z,77.15
2023-05-03T01:27:39.535Z,76.94
2023-05-03T01:30:12.589Z,76.81
2023-05-03T01:33:01.750Z,76.78
2023-05-03T01:35:54.799Z,77.18
2023-05-03T01:38:22.596Z,75.17
2023-05-03T01:40:52.607Z,75.91
2023-05-03T01:43:23.598Z,76.59
2023-05-03T01:45:51.092Z,76.09
2023-05-03T01:48:20.141Z,76.25
2023-05-03T01:50:47.681Z,76.24
2023-05-03T01:53:14.820Z,75.97
2023-05-03T01:55:43.314Z,73.55
2023-05-03T01:58:12.677Z,73.05
2023-05-03T02:00:39.975Z,73.07
2023-05-03T02:03:06.948Z,73.43
2023-05-03T02:05:35.605Z,73.64
2023-05-03T02:08:02.407Z,73.32
2023-05-03T02:10:30.157Z,72.05
2023-05-03T02:12:57.498Z,72.62
2023-05-03T02:15:25.114Z,72.44
2023-05-03T02:17:54.380Z,72.03
2023-05-03T02:20:22.080Z,71.71
2023-05-03T02:22:48.933Z,70.87
2023-05-03T02:25:16.372Z,70.91
2023-05-03T02:27:45.100Z,70.53
2023-05-03T02:30:13.627Z,70.30
2023-05-03T02:32:43.594Z,69.50
2023-05-03T02:35:11.330Z,69.57
2023-05-03T02:37:38.321Z,69.83
2023-05-03T02:40:11.307Z,69.83
2023-05-03T02:42:40.829Z,69.42
2023-05-03T02:45:08.972Z,69.41
2023-05-03T02:47:36.067Z,69.13
2023-05-03T02:50:03.933Z,69.35
2023-05-03T02:52:34.728Z,69.87
2023-05-03T02:55:02.246Z,70.61
2023-05-03T02:57:29.472Z,70.76
2023-05-03T02:59:58.693Z,71.11
2023-05-03T03:02:26.805Z,71.26
2023-05-03T03:04:55.103Z,71.73
2023-05-03T03:07:23.130Z,71.66
2023-05-03T03:09:53.639Z,71.71
2023-05-03T03:12:21.523Z,71.76
2023-05-03T03:14:48.868Z,71.91
2023-05-03T03:17:16.029Z,72.06
2023-05-03T03:19:43.158Z,71.91
2023-05-03T03:22:10.060Z,71.75
2023-05-03T03:24:37.671Z,71.82
2023-05-03T03:27:05.564Z,71.41
2023-05-03T03:29:33.983Z,70.79
2023-05-03T03:32:01.631Z,71.05
2023-05-03T03:34:30.064Z,71.69
2023-05-03T03:36:57.233Z,72.35
2023-05-03T03:39:26.923Z,72.97
2023-05-03T03:41:54.278Z,73.55
2023-05-03T03:44:21.769Z,74.18
2023-05-03T03:46:49.344Z,74.20
2023-05-03T03:49:18.214Z,74.25
2023-05-03T03:51:45.920Z,73.60
2023-05-03T03:54:14.311Z,73.97
2023-05-03T03:56:45.707Z,74.03
2023-05-03T03:59:13.721Z,73.93
2023-05-03T04:01:40.867Z,74.21
2023-05-03T04:04:09.391Z,74.42
2023-05-03T04:06:36.487Z,73.22
2023-05-03T04:09:07.996Z,71.60
2023-05-03T04:11:36.041Z,70.28
2023-05-03T04:14:04.750Z,70.79
2023-05-03T04:16:33.363Z,70.80
2023-05-03T04:19:02.753Z,70.03
2023-05-03T04:21:32.389Z,69.35
2023-05-03T04:24:00.766Z,69.00
2023-05-03T04:26:31.443Z,68.36
2023-05-03T04:29:07.127Z,67.27
2023-05-03T04:31:36.003Z,66.91
2023-05-03T04:34:03.338Z,66.94
2023-05-03T04:36:30.601Z,67.44
2023-05-03T04:38:59.318Z,66.80
2023-05-03T04:41:26.382Z,67.39
2023-05-03T04:43:55.122Z,68.36
2023-05-03T04:46:22.294Z,67.14
2023-05-03T04:48:51.506Z,67.11
2023-05-03T04:51:18.664Z,66.19
2023-05-03T04:53:47.680Z,66.80
2023-05-03T04:56:19.827Z,66.52
2023-05-03T04:58:47.269Z,66.67
2023-05-03T05:01:16.330Z,66.67
2023-05-03T05:03:44.383Z,63.95
2023-05-03T05:06:17.849Z,63.98
2023-05-03T05:08:45.710Z,63.93
2023-05-03T05:11:15.052Z,64.13
2023-05-03T05:13:42.707Z,64.93
2023-05-03T05:16:09.727Z,64.20
2023-05-03T05:18:39.623Z,63.13
2023-05-03T05:21:09.145Z,63.18
2023-05-03T05:23:38.190Z,62.74
2023-05-03T05:26:05.414Z,63.34
2023-05-03T05:28:33.902Z,63.99
2023-05-03T05:31:01.641Z,64.32
2023-05-03T05:33:29.881Z,63.51
2023-05-03T05:35:58.537Z,62.45
2023-05-03T05:38:26.580Z,63.14
2023-05-03T05:40:56.752Z,62.62
2023-05-03T05:43:24.956Z,61.95
2023-05-03T05:45:51.994Z,62.74
2023-05-03T05:48:20.514Z,61.24
2023-05-03T05:50:49.032Z,60.98
2023-05-03T05:53:16.764Z,60.45
2023-05-03T05:55:51.324Z,60.14
2023-05-03T05:58:23.250Z,59.74
2023-05-03T06:00:57.540Z,58.57
2023-05-03T06:03:25.161Z,56.65
2023-05-03T06:05:52.128Z,58.36
2023-05-03T06:08:21.243Z,55.82
2023-05-03T06:10:48.416Z,55.13
2023-05-03T06:13:15.810Z,54.19
2023-05-03T06:15:46.485Z,52.59
2023-05-03T06:18:13.903Z,51.44
2023-05-03T06:20:41.020Z,51.07
2023-05-03T06:23:08.683Z,51.01
2023-05-03T06:25:37.765Z,51.65
2023-05-03T06:28:05.401Z,52.34
2023-05-03T06:30:35.295Z,52.63
2023-05-03T06:33:08.252Z,50.79
2023-05-03T06:35:35.998Z,49.62
2023-05-03T06:38:03.264Z,50.37
2023-05-03T06:40:31.115Z,50.17
2023-05-03T06:42:59.689Z,50.01
2023-05-03T06:45:39.959Z,49.73
2023-05-03T06:48:07.907Z,48.43
2023-05-03T06:50:34.999Z,48.10
2023-05-03T06:53:02.768Z,48.22
2023-05-03T06:55:30.057Z,47.99
2023-05-03T06:57:57.710Z,48.60
2023-05-03T07:00:26.093Z,49.64
2023-05-03T07:02:54.827Z,48.92
2023-05-03T07:05:23.476Z,49.71
2023-05-03T07:07:52.169Z,49.44
2023-05-03T07:10:20.972Z,49.67
2023-05-03T07:12:48.520Z,49.57
2023-05-03T07:15:16.051Z,49.24
2023-05-03T07:17:44.518Z,48.90
2023-05-03T07:20:13.268Z,48.29
2023-05-03T07:22:40.879Z,49.17
2023-05-03T07:25:09.135Z,48.04
2023-05-03T07:27:37.268Z,47.98
2023-05-03T07:30:05.438Z,47.64
2023-05-03T07:32:33.454Z,47.43
2023-05-03T07:35:00.693Z,47.66
2023-05-03T07:37:28.378Z,47.19
2023-05-03T07:39:55.967Z,48.22
2023-05-03T07:42:23.679Z,47.46
2023-05-03T07:44:52.412Z,47.77
2023-05-03T07:47:20.330Z,46.62
2023-05-03T07:49:48.064Z,46.56
2023-05-03T07:52:15.719Z,46.11
2023-05-03T07:54:45.917Z,45.63
2023-05-03T07:57:14.988Z,46.05
2023-05-03T07:59:44.988Z,46.56
2023-05-03T08:02:12.998Z,47.05
2023-05-03T08:04:41.741Z,46.01
2023-05-03T08:07:09.899Z,45.91
2023-05-03T08:09:36.965Z,45.91
2023-05-03T08:12:04.600Z,46.47
2023-05-03T08:14:31.531Z,47.38
2023-05-03T08:16:59.966Z,47.00
2023-05-03T08:19:27.007Z,47.26
2023-05-03T08:21:55.761Z,46.12
2023-05-03T08:24:23.365Z,45.02
2023-05-03T08:26:50.878Z,46.02
2023-05-03T08:29:17.755Z,45.67
2023-05-03T08:31:47.416Z,46.11
2023-05-03T08:34:15.804Z,46.75
2023-05-03T08:36:44.729Z,46.66
2023-05-03T08:39:12.265Z,46.77
2023-05-03T08:41:39.909Z,47.51
2023-05-03T08:44:08.850Z,48.57
2023-05-03T08:46:38.571Z,48.24
2023-05-03T08:49:09.649Z,47.01
2023-05-03T08:51:42.225Z,48.46
2023-05-03T08:54:09.441Z,49.07
2023-05-03T08:56:42.422Z,48.15
2023-05-03T08:59:11.836Z,47.08
2023-05-03T09:01:41.080Z,46.42
2023-05-03T09:04:10.148Z,46.02
2023-05-03T09:06:38.620Z,45.58
2023-05-03T09:09:08.657Z,46.48
2023-05-03T09:11:38.287Z,46.76
2023-05-03T09:14:16.620Z,45.86
2023-05-03T09:16:46.699Z,46.32
2023-05-03T09:19:15.877Z,45.05
2023-05-03T09:21:47.413Z,44.61
2023-05-03T09:24:19.223Z,45.07
2023-05-03T09:26:51.137Z,43.97
2023-05-03T09:29:30.229Z,44.42
2023-05-03T09:32:10.997Z,45.30
2023-05-03T09:34:38.317Z,46.06
2023-05-03T09:37:06.611Z,45.85
2023-05-03T09:39:34.791Z,44.91
2023-05-03T09:42:21.773Z,45.92
2023-05-03T09:44:54.295Z,45.38
2023-05-03T09:47:24.819Z,43.48
2023-05-03T09:49:51.889Z,44.40
2023-05-03T09:52:22.769Z,45.45
2023-05-03T09:54:52.178Z,45.47
2023-05-03T09:57:19.952Z,46.29
2023-05-03T09:59:47.539Z,44.55
2023-05-03T10:02:16.534Z,42.28
2023-05-03T10:04:50.861Z,42.20
2023-05-03T10:07:19.059Z,41.46
2023-05-03T10:09:48.355Z,41.52
2023-05-03T10:12:19.503Z,41.00
2023-05-03T10:14:48.918Z,42.36
2023-05-03T10:17:46.472Z,41.86
2023-05-03T10:20:41.542Z,41.34
2023-05-03T10:23:12.113Z,42.00
2023-05-03T10:26:00.445Z,42.48
2023-05-03T10:28:29.867Z,42.21
2023-05-03T10:30:57.200Z,41.28
2023-05-03T10:33:37.206Z,41.63
2023-05-03T10:36:10.923Z,42.34
2023-05-03T10:38:38.612Z,41.42
2023-05-03T10:41:07.380Z,40.63
2023-05-03T10:43:35.680Z,40.27
2023-05-03T10:46:05.558Z,40.57
2023-05-03T10:48:35.054Z,39.89
2023-05-03T10:51:30.878Z,40.25
2023-05-03T10:53:58.644Z,40.73
2023-05-03T10:56:26.004Z,40.66
2023-05-03T10:58:57.140Z,40.70
2023-05-03T11:01:27.554Z,40.13
2023-05-03T11:04:08.154Z,39.74
2023-05-03T11:06:41.622Z,39.76
2023-05-03T11:09:10.429Z,40.45
2023-05-03T11:11:39.887Z,40.24
2023-05-03T11:14:08.896Z,40.13
2023-05-03T11:16:37.023Z,40.72
2023-05-03T11:19:06.191Z,40.07
2023-05-03T11:21:33.589Z,39.60
2023-05-03T11:24:02.003Z,39.45
2023-05-03T11:26:28.961Z,38.73
2023-05-03T11:28:56.278Z,39.00
2023-05-03T11:31:24.063Z,39.05
2023-05-03T11:33:51.572Z,37.96
2023-05-03T11:36:18.945Z,37.81
2023-05-03T11:38:46.313Z,38.87
2023-05-03T11:41:16.831Z,38.45
2023-05-03T11:43:52.825Z,38.13
2023-05-03T11:46:28.361Z,37.94
2023-05-03T11:48:56.793Z,38.11
2023-05-03T11:51:24.962Z,38.62
2023-05-03T11:53:52.426Z,37.82
2023-05-03T11:56:20.985Z,38.35
2023-05-03T11:58:58.501Z,39.02
2023-05-03T12:01:27.749Z,39.12
2023-05-03T12:03:57.958Z,39.02
2023-05-03T12:06:30.763Z,38.81
2023-05-03T12:09:00.794Z,38.06
2023-05-03T12:11:30.759Z,37.54
2023-05-03T12:14:02.482Z,37.25
2023-05-03T12:16:47.554Z,37.71
2023-05-03T12:22:23.687Z,35.94
2023-05-03T12:24:54.005Z,35.30
2023-05-03T12:27:23.464Z,35.71
2023-05-03T12:29:51.876Z,35.04
2023-05-03T12:32:21.680Z,34.95
2023-05-03T12:34:51.973Z,35.56
2023-05-03T12:37:22.052Z,35.95
2023-05-03T12:40:01.584Z,36.10
2023-05-03T12:42:37.397Z,35.71
2023-05-03T12:45:06.738Z,36.39
2023-05-03T12:47:37.427Z,35.71
2023-05-03T12:50:11.942Z,35.08
2023-05-03T12:52:39.801Z,35.14
2023-05-03T12:55:11.244Z,35.88
2023-05-03T12:57:39.264Z,34.95
2023-05-03T13:00:14.556Z,34.90
2023-05-03T13:03:20.498Z,34.27
2023-05-03T13:05:35.020Z,34.33
2023-05-03T13:08:09.061Z,34.25
2023-05-03T13:10:39.249Z,33.86
2023-05-03T13:13:07.163Z,34.34
2023-05-03T13:15:36.789Z,34.02
2023-05-03T13:18:07.662Z,33.59
2023-05-03T13:20:36.291Z,33.99
2023-05-03T13:23:05.112Z,34.08
2023-05-03T13:25:33.135Z,34.89
2023-05-03T13:28:01.858Z,34.66
2023-05-03T13:30:30.088Z,34.55
2023-05-03T13:32:57.290Z,33.89
2023-05-03T13:35:25.017Z,34.77
2023-05-03T13:37:53.831Z,34.55
2023-05-03T13:40:22.072Z,33.93
2023-05-03T13:42:48.943Z,34.22
2023-05-03T13:45:16.704Z,34.96
2023-05-03T13:48:04.903Z,34.80
2023-05-03T13:50:31.562Z,35.35
2023-05-03T13:52:59.000Z,35.80
2023-05-03T13:55:26.825Z,35.95
2023-05-03T13:57:53.731Z,35.94
2023-05-03T14:00:21.499Z,35.98
2023-05-03T14:02:49.293Z,36.28
2023-05-03T14:05:19.676Z,36.00
2023-05-03T14:07:46.552Z,36.30
2023-05-03T14:10:13.942Z,34.91
2023-05-03T14:12:41.525Z,34.71
2023-05-03T14:15:09.280Z,35.08
2023-05-03T14:17:36.254Z,34.89
2023-05-03T14:20:07.860Z,34.34
2023-05-03T14:22:35.217Z,33.32
2023-05-03T14:25:02.672Z,33.77
2023-05-03T14:27:30.893Z,33.57
2023-05-03T14:29:58.108Z,33.87
2023-05-03T14:32:25.667Z,34.00
2023-05-03T14:34:53.266Z,34.80
2023-05-03T14:37:20.235Z,34.37
2023-05-03T14:39:47.509Z,34.53
2023-05-03T14:42:14.781Z,34.66
2023-05-03T14:44:42.733Z,34.40
2023-05-03T14:47:11.221Z,34.49
2023-05-03T14:49:41.553Z,34.12
2023-05-03T14:52:09.192Z,33.43
2023-05-03T14:54:38.480Z,33.78
2023-05-03T14:57:06.075Z,33.99
2023-05-03T14:59:33.811Z,33.24
2023-05-03T15:02:01.737Z,33.61
2023-05-03T15:04:29.785Z,31.18
2023-05-03T15:07:03.930Z,29.63
2023-05-03T15:09:31.823Z,30.01
2023-05-03T15:11:59.419Z,31.19
2023-05-03T15:14:27.043Z,32.37
2023-05-03T15:16:54.146Z,33.15
2023-05-03T15:19:22.237Z,33.56
2023-05-03T15:21:51.810Z,33.97
2023-05-03T15:24:19.320Z,33.78
2023-05-03T15:26:47.064Z,32.49
2023-05-03T15:29:15.783Z,30.31
2023-05-03T15:31:43.874Z,29.14
2023-05-03T15:34:12.592Z,29.51
2023-05-03T15:36:40.646Z,30.94
2023-05-03T15:39:09.393Z,31.02
2023-05-03T15:41:36.471Z,31.76
2023-05-03T15:44:05.556Z,31.44
2023-05-03T15:46:33.740Z,31.91
2023-05-03T15:49:01.280Z,32.25
2023-05-03T15:51:29.386Z,32.41
2023-05-03T15:53:57.155Z,32.84
2023-05-03T15:56:24.183Z,33.43
2023-05-03T15:58:52.388Z,33.75
2023-05-03T16:01:19.416Z,33.95
2023-05-03T16:03:48.221Z,34.04
2023-05-03T16:06:18.288Z,33.53
2023-05-03T16:08:46.027Z,33.53
2023-05-03T16:11:13.494Z,33.75
2023-05-03T16:13:41.048Z,33.31
2023-05-03T16:16:08.142Z,33.40
2023-05-03T16:18:35.608Z,33.32
2023-05-03T16:21:02.973Z,33.28
2023-05-03T16:23:30.539Z,33.42
2023-05-03T16:25:57.762Z,33.63
2023-05-03T16:28:25.394Z,33.47
2023-05-03T16:30:52.376Z,33.79
2023-05-03T16:33:21.400Z,33.61
2023-05-03T16:35:49.975Z,33.86
2023-05-03T16:38:17.662Z,34.58
2023-05-03T16:40:46.148Z,34.96
2023-05-03T16:43:15.716Z,32.84
2023-05-03T16:45:42.881Z,33.29
2023-05-03T16:48:11.299Z,33.60
2023-05-03T16:50:38.753Z,33.17
2023-05-03T16:53:06.649Z,32.67
2023-05-03T16:55:33.629Z,32.79
2023-05-03T16:58:01.449Z,33.28
2023-05-03T17:00:29.010Z,33.88
2023-05-03T17:02:56.779Z,34.39
2023-05-03T17:05:25.363Z,34.61
2023-05-03T17:07:52.699Z,34.68
2023-05-03T17:10:19.850Z,34.76
2023-05-03T17:12:48.083Z,34.55
2023-05-03T17:15:15.124Z,34.87
2023-05-03T17:17:42.515Z,35.13
2023-05-03T17:20:10.960Z,35.13
2023-05-03T17:22:39.292Z,35.42
2023-05-03T17:25:08.165Z,35.21
2023-05-03T17:27:39.337Z,35.33
2023-05-03T17:30:07.388Z,35.39
2023-05-03T17:32:35.045Z,35.62
2023-05-03T17:35:02.343Z,35.75
2023-05-03T17:37:29.692Z,35.89
2023-05-03T17:39:58.086Z,36.02
2023-05-03T17:42:25.529Z,36.40
2023-05-03T17:44:54.754Z,36.55
2023-05-03T17:47:23.009Z,36.61
2023-05-03T17:49:50.745Z,36.65
2023-05-03T17:52:18.156Z,36.57
2023-05-03T17:54:46.270Z,36.78
2023-05-03T17:57:13.807Z,36.67
2023-05-03T17:59:40.862Z,36.82
2023-05-03T18:02:09.108Z,36.82
2023-05-03T18:04:36.297Z,37.00
2023-05-03T18:07:04.186Z,37.05
2023-05-03T18:09:33.049Z,37.16
2023-05-03T18:12:01.989Z,37.16
2023-05-03T18:14:29.097Z,37.49
2023-05-03T18:16:56.679Z,37.62
2023-05-03T18:19:24.106Z,37.78
2023-05-03T18:21:51.584Z,37.89
2023-05-03T18:24:18.521Z,37.75
2023-05-03T18:26:47.343Z,37.87
2023-05-03T18:29:20.398Z,38.01
2023-05-03T18:31:58.806Z,38.04
2023-05-03T18:34:30.356Z,38.18
2023-05-03T18:37:05.849Z,38.29
2023-05-03T18:39:36.890Z,38.50
2023-05-03T18:42:12.159Z,38.71
2023-05-03T18:44:47.451Z,39.11
2023-05-03T18:47:26.002Z,39.14
2023-05-03T18:49:56.933Z,39.14
2023-05-03T18:52:32.390Z,39.37
2023-05-03T18:55:03.673Z,39.61
2023-05-03T18:57:39.343Z,39.58
2023-05-03T19:00:11.364Z,39.50
2023-05-03T19:02:46.824Z,39.81
2023-05-03T19:05:24.898Z,39.90
2023-05-03T19:08:04.388Z,40.37
2023-05-03T19:10:39.595Z,40.93
2023-05-03T19:13:15.982Z,41.42
2023-05-03T19:15:47.044Z,42.12
2023-05-03T19:18:22.468Z,42.61
2023-05-03T19:20:53.744Z,42.85
2023-05-03T19:23:29.144Z,43.19
2023-05-03T19:26:04.335Z,43.62
2023-05-03T19:28:35.999Z,43.78
2023-05-03T19:31:11.144Z,44.31
2023-05-03T19:33:46.585Z,44.57
2023-05-03T19:36:17.589Z,44.75
2023-05-03T19:38:52.850Z,44.85
2023-05-03T19:41:23.915Z,45.35
2023-05-03T19:43:59.621Z,45.36
2023-05-03T19:46:35.139Z,45.78
2023-05-03T19:49:06.607Z,45.93
2023-05-03T19:51:42.692Z,46.29
2023-05-03T19:54:14.052Z,46.19
2023-05-03T19:56:44.988Z,46.76
2023-05-03T19:59:20.292Z,47.42
2023-05-03T20:01:55.669Z,47.55
2023-05-03T20:04:30.919Z,48.01
2023-05-03T20:07:05.892Z,48.43
2023-05-03T20:09:37.093Z,48.70
2023-05-03T20:12:12.173Z,49.42
2023-05-03T20:14:47.504Z,49.73
2023-05-03T20:17:22.717Z,49.95
2023-05-03T20:19:58.205Z,50.03
2023-05-03T20:22:33.184Z,50.65
2023-05-03T20:25:08.890Z,51.26
2023-05-03T20:27:44.013Z,51.48
2023-05-03T20:30:15.518Z,51.50
2023-05-03T20:32:46.631Z,51.34
2023-05-03T20:35:18.385Z,51.85
2023-05-03T20:37:49.812Z,51.84
2023-05-03T20:40:25.649Z,52.50
2023-05-03T20:43:00.818Z,53.43
2023-05-03T20:45:36.230Z,53.87
2023-05-03T20:48:08.049Z,53.89
2023-05-03T20:50:35.618Z,54.06
2023-05-03T20:53:03.003Z,54.12
2023-05-03T20:55:30.444Z,54.35
2023-05-03T20:57:57.695Z,54.62
2023-05-03T21:00:26.507Z,53.71
2023-05-03T21:02:54.782Z,54.37
2023-05-03T21:05:22.852Z,54.65
2023-05-03T21:07:49.972Z,53.22
2023-05-03T21:10:17.226Z,54.06
2023-05-03T21:12:44.546Z,54.12
2023-05-03T21:15:12.154Z,52.28
2023-05-03T21:17:39.189Z,51.97
2023-05-03T21:20:08.170Z,52.51
2023-05-03T21:22:35.135Z,52.78
2023-05-03T21:25:02.511Z,53.34
2023-05-03T21:27:29.558Z,54.30
2023-05-03T21:29:57.257Z,53.94
2023-05-03T21:32:24.241Z,53.21
2023-05-03T21:34:52.542Z,53.40
2023-05-03T21:37:20.402Z,53.28
2023-05-03T21:39:58.025Z,52.42
2023-05-03T21:42:33.086Z,52.11
2023-05-03T21:45:00.279Z,52.46
2023-05-03T21:47:28.064Z,52.69
2023-05-03T21:49:55.898Z,52.88
2023-05-03T21:52:23.274Z,52.48
2023-05-03T21:54:52.770Z,53.36
2023-05-03T21:57:19.755Z,53.08
2023-05-03T21:59:47.456Z,53.41
2023-05-03T22:02:14.456Z,53.74
2023-05-03T22:04:42.002Z,53.78
2023-05-03T22:07:09.236Z,53.07
2023-05-03T22:09:37.071Z,51.84
2023-05-03T22:12:19.052Z,50.33
2023-05-03T22:14:49.874Z,50.62
2023-05-03T22:17:16.803Z,51.48
2023-05-03T22:19:44.554Z,51.75
2023-05-03T22:22:11.597Z,52.19
2023-05-03T22:24:38.964Z,52.43
2023-05-03T22:27:05.931Z,52.54
2023-05-03T22:29:33.302Z,52.92
2023-05-03T22:32:00.809Z,52.88
2023-05-03T22:34:28.517Z,52.99
2023-05-03T22:36:55.974Z,53.27
2023-05-03T22:39:23.640Z,54.00
2023-05-03T22:41:50.632Z,53.99
2023-05-03T22:44:17.993Z,54.01
2023-05-03T22:46:44.986Z,54.28
2023-05-03T22:49:12.529Z,54.56
2023-05-03T22:51:39.523Z,54.64
2023-05-03T22:54:07.350Z,54.51
2023-05-03T22:56:34.319Z,54.64
2023-05-03T22:59:01.582Z,54.90
2023-05-03T23:01:28.708Z,55.23
2023-05-03T23:03:57.395Z,55.23
2023-05-03T23:06:25.122Z,55.45
2023-05-03T23:08:52.561Z,55.56
2023-05-03T23:11:21.232Z,55.73
2023-05-03T23:13:48.370Z,55.96
2023-05-03T23:16:15.702Z,56.12
2023-05-03T23:18:43.261Z,56.78
2023-05-03T23:21:10.389Z,57.45
2023-05-03T23:23:38.105Z,57.67
2023-05-03T23:26:05.141Z,57.89
2023-05-03T23:28:33.023Z,58.37
2023-05-03T23:31:00.628Z,59.05
2023-05-03T23:33:28.485Z,58.88
2023-05-03T23:35:55.639Z,58.92
2023-05-03T23:38:23.040Z,58.83
2023-05-03T23:40:50.366Z,59.53
2023-05-03T23:43:17.590Z,59.56
2023-05-03T23:45:44.694Z,59.83
2023-05-03T23:48:12.186Z,60.17
2023-05-03T23:50:39.573Z,60.53
2023-05-03T23:53:07.366Z,61.10
2023-05-03T23:55:34.507Z,61.46
2023-05-03T23:58:01.692Z,62.04
